createdAt,value
2022-12-01T00:00:33.636Z,16.42
2022-12-01T00:03:56.014Z,13.85
2022-12-01T00:07:18.003Z,13.93
2022-12-01T00:10:40.007Z,14.00
2022-12-01T00:14:02.058Z,12.25
2022-12-01T00:17:24.065Z,15.88
2022-12-01T00:20:49.007Z,10.60
2022-12-01T00:24:12.121Z,12.88
2022-12-01T00:27:34.107Z,12.18
2022-12-01T00:30:56.163Z,12.25
2022-12-01T00:34:23.710Z,19.95
2022-12-01T00:37:45.735Z,14.32
2022-12-01T00:41:07.719Z,10.77
2022-12-01T00:44:29.907Z,13.02
2022-12-01T00:47:51.895Z,13.48
2022-12-01T00:51:14.019Z,14.23
2022-12-01T00:54:36.289Z,14.00
2022-12-01T00:57:58.427Z,11.45
2022-12-01T01:01:21.192Z,14.63
2022-12-01T01:04:43.363Z,16.20
2022-12-01T01:08:10.531Z,13.05
2022-12-01T01:11:32.667Z,15.45
2022-12-01T01:14:54.722Z,14.55
2022-12-01T01:18:16.785Z,12.32
2022-12-01T01:21:39.407Z,11.38
2022-12-01T01:25:01.425Z,14.60
2022-12-01T01:28:23.569Z,12.98
2022-12-01T01:31:45.667Z,15.10
2022-12-01T01:35:08.407Z,16.05
2022-12-01T01:38:31.491Z,12.85
2022-12-01T01:41:53.581Z,13.70
2022-12-01T01:45:29.847Z,11.73
2022-12-01T01:49:08.802Z,17.30
2022-12-01T01:52:30.817Z,13.55
2022-12-01T01:55:53.029Z,12.35
2022-12-01T01:59:19.133Z,13.75
2022-12-01T02:02:43.903Z,10.75
2022-12-01T02:06:07.937Z,10.73
2022-12-01T02:09:29.933Z,11.18
2022-12-01T02:13:06.295Z,12.23
2022-12-01T02:16:40.482Z,13.68
2022-12-01T02:20:20.898Z,11.63
2022-12-01T02:24:01.955Z,11.98
2022-12-01T02:27:32.750Z,14.95
2022-12-01T02:31:02.936Z,13.85
2022-12-01T02:38:13.636Z,14.90
2022-12-01T02:41:51.139Z,15.15
2022-12-01T02:45:37.367Z,15.50
2022-12-01T02:49:04.328Z,14.23
2022-12-01T02:52:28.395Z,13.82
2022-12-01T02:55:55.961Z,12.38
2022-12-01T02:59:18.003Z,14.70
2022-12-01T03:02:57.832Z,13.35
2022-12-01T03:06:41.459Z,12.40
2022-12-01T03:10:22.103Z,12.70
2022-12-01T03:13:58.094Z,14.13
2022-12-01T03:17:28.398Z,11.05
2022-12-01T03:20:57.372Z,17.48
2022-12-01T03:24:22.736Z,12.13
2022-12-01T03:28:13.895Z,15.45
2022-12-01T03:31:34.692Z,13.18
2022-12-01T03:35:09.154Z,14.85
2022-12-01T03:38:33.674Z,13.38
2022-12-01T03:42:02.367Z,14.40
2022-12-01T03:45:58.323Z,11.95
2022-12-01T03:49:22.262Z,14.40
2022-12-01T03:52:57.099Z,12.70
2022-12-01T03:56:23.414Z,13.18
2022-12-01T03:59:47.866Z,10.55
2022-12-01T04:03:17.959Z,13.35
2022-12-01T04:10:06.330Z,12.07
2022-12-01T04:13:28.314Z,12.75
2022-12-01T04:16:50.318Z,12.60
2022-12-01T04:20:15.370Z,12.57
2022-12-01T04:24:00.274Z,11.95
2022-12-01T04:27:22.269Z,14.73
2022-12-01T04:30:44.258Z,13.43
2022-12-01T04:34:07.039Z,15.40
2022-12-01T04:37:29.218Z,15.18
2022-12-01T04:40:51.197Z,13.98
2022-12-01T04:44:13.404Z,10.88
2022-12-01T04:47:35.595Z,15.30
2022-12-01T04:50:58.353Z,14.10
2022-12-01T04:54:20.602Z,10.65
2022-12-01T04:57:42.597Z,13.32
2022-12-01T05:01:10.548Z,12.15
2022-12-01T05:04:34.144Z,13.40
2022-12-01T05:07:58.498Z,16.38
2022-12-01T05:11:20.609Z,15.60
2022-12-01T05:14:42.637Z,16.02
2022-12-01T05:18:06.076Z,14.93
2022-12-01T05:21:28.091Z,13.50
2022-12-01T05:24:50.119Z,12.30
2022-12-01T05:28:12.151Z,15.38
2022-12-01T05:31:34.483Z,17.08
2022-12-01T05:34:56.553Z,15.05
2022-12-01T05:38:19.630Z,12.48
2022-12-01T05:41:41.655Z,17.98
2022-12-01T05:45:03.901Z,14.27
2022-12-01T05:48:25.917Z,14.95
2022-12-01T05:51:47.888Z,10.98
2022-12-01T05:55:10.022Z,11.60
2022-12-01T05:58:32.637Z,13.18
2022-12-01T06:01:54.881Z,12.00
2022-12-01T06:05:17.076Z,10.93
2022-12-01T06:08:39.078Z,26.45
2022-12-01T06:12:01.131Z,14.07
2022-12-01T06:15:23.119Z,12.43
2022-12-01T06:18:45.193Z,13.48
2022-12-01T06:22:07.255Z,9.23
2022-12-01T06:25:29.583Z,11.93
2022-12-01T06:28:51.924Z,13.98
2022-12-01T06:32:14.062Z,13.93
2022-12-01T06:35:36.736Z,11.70
2022-12-01T06:38:58.754Z,12.05
2022-12-01T06:42:24.553Z,11.63
2022-12-01T06:45:47.289Z,10.02
2022-12-01T06:49:13.430Z,9.82
2022-12-01T06:52:36.643Z,14.25
2022-12-01T06:56:04.584Z,15.80
2022-12-01T06:59:26.974Z,14.52
2022-12-01T07:02:49.728Z,15.57
2022-12-01T07:06:11.849Z,18.20
2022-12-01T07:09:34.554Z,13.45
2022-12-01T07:12:57.251Z,14.48
2022-12-01T07:16:19.372Z,15.85
2022-12-01T07:19:41.414Z,17.00
2022-12-01T07:23:03.426Z,18.95
2022-12-01T07:26:25.532Z,12.82
2022-12-01T07:29:47.950Z,14.90
2022-12-01T07:33:10.135Z,13.13
2022-12-01T07:36:32.440Z,23.13
2022-12-01T07:39:54.450Z,18.67
2022-12-01T07:43:16.493Z,14.75
2022-12-01T07:46:38.900Z,17.33
2022-12-01T07:50:00.932Z,15.32
2022-12-01T07:53:24.154Z,14.10
2022-12-01T07:56:46.223Z,24.55
2022-12-01T08:00:09.082Z,19.92
2022-12-01T08:03:33.938Z,17.27
2022-12-01T08:06:55.980Z,18.13
2022-12-01T08:10:18.019Z,18.13
2022-12-01T08:13:41.093Z,19.88
2022-12-01T08:17:03.127Z,15.00
2022-12-01T08:20:25.256Z,22.20
2022-12-01T08:23:48.532Z,15.35
2022-12-01T08:27:10.541Z,27.77
2022-12-01T08:30:32.591Z,26.17
2022-12-01T08:33:55.578Z,28.15
2022-12-01T08:37:20.309Z,32.35
2022-12-01T08:40:42.323Z,18.70
2022-12-01T08:44:04.447Z,24.58
2022-12-01T08:47:28.904Z,12.57
2022-12-01T08:50:51.015Z,14.70
2022-12-01T08:54:13.061Z,13.00
2022-12-01T08:57:35.156Z,12.32
2022-12-01T09:01:05.099Z,15.65
2022-12-01T09:04:27.400Z,12.38
2022-12-01T09:08:09.392Z,10.95
2022-12-01T09:11:31.486Z,12.23
2022-12-01T09:14:53.485Z,8.38
2022-12-01T09:18:15.551Z,11.18
2022-12-01T09:21:38.043Z,8.80
2022-12-01T09:25:00.022Z,8.90
2022-12-01T09:28:22.174Z,7.38
2022-12-01T09:31:44.524Z,11.18
2022-12-01T09:35:06.706Z,11.15
2022-12-01T09:38:33.668Z,9.57
2022-12-01T09:42:17.299Z,9.95
2022-12-01T09:45:46.104Z,9.48
2022-12-01T09:49:17.431Z,6.55
2022-12-01T09:52:57.634Z,9.05
2022-12-01T09:56:24.473Z,9.68
2022-12-01T09:59:47.129Z,9.07
2022-12-01T10:03:09.880Z,7.60
2022-12-01T10:06:55.770Z,8.75
2022-12-01T10:10:48.022Z,7.65
2022-12-01T10:14:20.330Z,7.70
2022-12-01T10:18:14.072Z,10.43
2022-12-01T10:22:03.329Z,10.25
2022-12-01T10:25:28.161Z,6.93
2022-12-01T10:28:58.194Z,8.20
2022-12-01T10:32:45.994Z,10.82
2022-12-01T10:36:10.481Z,6.72
2022-12-01T10:39:39.130Z,9.90
2022-12-01T10:43:02.350Z,12.23
2022-12-01T10:46:47.548Z,8.38
2022-12-01T10:50:26.169Z,6.90
2022-12-01T10:53:48.614Z,7.93
2022-12-01T10:57:17.577Z,8.45
2022-12-01T11:00:59.232Z,7.93
2022-12-01T11:04:25.104Z,8.68
2022-12-01T11:07:49.050Z,7.60
2022-12-01T11:11:32.798Z,9.27
2022-12-01T11:14:57.440Z,8.75
2022-12-01T11:18:33.732Z,10.80
2022-12-01T11:22:00.838Z,13.15
2022-12-01T11:25:22.947Z,9.30
2022-12-01T11:28:58.593Z,7.30
2022-12-01T11:32:30.041Z,6.82
2022-12-01T11:35:52.377Z,7.68
2022-12-01T11:39:27.735Z,7.55
2022-12-01T11:42:55.834Z,7.97
2022-12-01T11:46:26.502Z,13.43
2022-12-01T11:50:00.397Z,6.63
2022-12-01T11:53:31.133Z,8.55
2022-12-01T11:57:25.334Z,7.10
2022-12-01T12:00:56.217Z,8.15
2022-12-01T12:04:26.884Z,7.25
2022-12-01T12:08:00.714Z,8.77
2022-12-01T12:11:29.544Z,6.97
2022-12-01T12:15:23.827Z,5.47
2022-12-01T12:20:06.291Z,6.50
2022-12-01T12:23:36.883Z,8.50
2022-12-01T12:27:09.461Z,7.30
2022-12-01T12:30:42.626Z,6.60
2022-12-01T12:34:16.597Z,10.43
2022-12-01T12:37:59.931Z,7.03
2022-12-01T12:41:41.930Z,9.55
2022-12-01T12:45:27.340Z,7.00
2022-12-01T12:49:18.791Z,10.02
2022-12-01T12:52:44.853Z,5.97
2022-12-01T12:56:10.890Z,6.13
2022-12-01T12:59:52.180Z,8.77
2022-12-01T13:03:27.880Z,5.68
2022-12-01T13:07:01.787Z,6.97
2022-12-01T13:10:47.343Z,6.50
2022-12-01T13:14:23.898Z,5.40
2022-12-01T13:17:54.442Z,5.45
2022-12-01T13:21:20.038Z,5.75
2022-12-01T13:24:42.464Z,6.78
2022-12-01T13:28:13.558Z,7.70
2022-12-01T13:31:48.751Z,6.88
2022-12-01T13:35:29.011Z,5.55
2022-12-01T13:39:03.009Z,7.32
2022-12-01T13:42:26.992Z,5.60
2022-12-01T13:45:50.172Z,7.57
2022-12-01T13:49:33.869Z,7.65
2022-12-01T13:53:33.493Z,5.95
2022-12-01T13:57:03.347Z,6.32
2022-12-01T14:00:31.488Z,6.65
2022-12-01T14:04:13.547Z,6.30
2022-12-01T14:07:39.149Z,5.25
2022-12-01T14:11:06.482Z,5.03
2022-12-01T14:14:38.973Z,8.23
2022-12-01T14:18:20.031Z,6.30
2022-12-01T14:25:21.364Z,7.07
2022-12-01T14:28:55.738Z,9.68
2022-12-01T14:32:17.861Z,10.20
2022-12-01T14:35:40.066Z,8.80
2022-12-01T14:39:27.092Z,10.27
2022-12-01T14:43:12.161Z,11.23
2022-12-01T14:46:47.100Z,13.75
2022-12-01T14:50:24.893Z,12.05
2022-12-01T14:53:50.753Z,13.68
2022-12-01T14:57:17.230Z,12.38
2022-12-01T15:01:06.915Z,16.77
2022-12-01T15:04:29.020Z,11.73
2022-12-01T15:07:58.841Z,15.18
2022-12-01T15:11:30.312Z,11.85
2022-12-01T15:14:52.580Z,16.65
2022-12-01T15:18:29.942Z,13.52
2022-12-01T15:21:52.199Z,14.48
2022-12-01T15:25:15.630Z,14.18
2022-12-01T15:28:37.687Z,15.73
2022-12-01T15:32:02.644Z,15.73
2022-12-01T15:35:25.630Z,16.65
2022-12-01T15:38:49.385Z,14.23
2022-12-01T15:42:24.831Z,19.95
2022-12-01T15:45:55.515Z,19.08
2022-12-01T15:49:32.879Z,15.27
2022-12-01T15:52:55.338Z,31.98
2022-12-01T15:56:27.134Z,20.65
2022-12-01T15:59:55.170Z,17.90
2022-12-01T16:03:17.280Z,18.42
2022-12-01T16:06:40.616Z,16.20
2022-12-01T16:10:04.058Z,15.73
2022-12-01T16:13:59.899Z,15.15
2022-12-01T16:17:23.436Z,15.75
2022-12-01T16:20:45.628Z,15.02
2022-12-01T16:24:13.584Z,15.68
2022-12-01T16:27:37.821Z,12.45
2022-12-01T16:31:00.042Z,13.77
2022-12-01T16:34:44.613Z,14.25
2022-12-01T16:38:22.744Z,19.27
2022-12-01T16:41:46.775Z,14.70
2022-12-01T16:45:13.751Z,15.40
2022-12-01T16:48:37.626Z,17.30
2022-12-01T16:52:11.182Z,18.40
2022-12-01T16:55:46.773Z,17.92
2022-12-01T16:59:08.836Z,18.27
2022-12-01T17:02:30.929Z,20.38
2022-12-01T17:05:53.980Z,17.98
2022-12-01T17:09:16.076Z,19.85
2022-12-01T17:12:38.099Z,23.42
2022-12-01T17:16:07.450Z,23.20
2022-12-01T17:19:29.462Z,30.20
2022-12-01T17:22:51.743Z,22.73
2022-12-01T17:26:19.669Z,20.08
2022-12-01T17:29:45.883Z,23.92
2022-12-01T17:33:08.428Z,22.25
2022-12-01T17:36:30.753Z,22.65
2022-12-01T17:39:52.839Z,18.33
2022-12-01T17:43:14.879Z,24.60
2022-12-01T17:46:38.493Z,24.23
2022-12-01T17:50:01.773Z,19.73
2022-12-01T17:53:23.953Z,20.00
2022-12-01T17:56:46.015Z,18.75
2022-12-01T18:00:08.710Z,22.23
2022-12-01T18:03:30.748Z,22.08
2022-12-01T18:06:54.586Z,24.40
2022-12-01T18:10:17.432Z,23.10
2022-12-01T18:13:41.647Z,33.08
2022-12-01T18:17:04.606Z,26.10
2022-12-01T18:20:26.648Z,24.75
2022-12-01T18:23:54.031Z,28.33
2022-12-01T18:27:16.041Z,22.17
2022-12-01T18:30:38.970Z,24.05
2022-12-01T18:34:03.122Z,33.38
2022-12-01T18:37:25.127Z,24.65
2022-12-01T18:40:47.254Z,20.33
2022-12-01T18:44:10.104Z,20.25
2022-12-01T18:47:32.145Z,22.67
2022-12-01T18:50:59.235Z,21.15
2022-12-01T18:54:21.731Z,21.40
2022-12-01T18:57:43.738Z,21.20
2022-12-01T19:01:18.776Z,13.63
2022-12-01T19:04:41.230Z,29.52
2022-12-01T19:08:03.305Z,26.13
2022-12-01T19:11:26.354Z,25.60
2022-12-01T19:14:48.812Z,20.00
2022-12-01T19:18:11.090Z,24.67
2022-12-01T19:21:33.275Z,22.70
2022-12-01T19:24:55.831Z,19.95
2022-12-01T19:28:18.168Z,18.83
2022-12-01T19:31:40.395Z,43.95
2022-12-01T19:35:02.469Z,17.10
2022-12-01T19:38:24.925Z,25.23
2022-12-01T19:41:46.987Z,17.98
2022-12-01T19:45:10.842Z,19.23
2022-12-01T19:48:32.973Z,21.90
2022-12-01T19:51:55.045Z,17.23
2022-12-01T19:55:17.241Z,18.77
2022-12-01T19:58:40.344Z,22.50
2022-12-01T20:02:03.596Z,17.55
2022-12-01T20:05:25.968Z,19.83
2022-12-01T20:08:49.013Z,21.30
2022-12-01T20:12:12.773Z,22.67
2022-12-01T20:15:35.605Z,25.88
2022-12-01T20:19:03.480Z,19.45
2022-12-01T20:22:25.995Z,21.90
2022-12-01T20:26:02.883Z,22.50
2022-12-01T20:29:29.818Z,19.80
2022-12-01T20:32:52.302Z,17.05
2022-12-01T20:36:14.865Z,19.05
2022-12-01T20:39:38.824Z,19.08
2022-12-01T20:43:01.092Z,21.70
2022-12-01T20:46:23.494Z,18.50
2022-12-01T20:49:45.827Z,17.30
2022-12-01T20:53:11.455Z,19.10
2022-12-01T20:56:36.805Z,18.77
2022-12-01T20:59:58.872Z,23.52
2022-12-01T21:03:21.521Z,25.05
2022-12-01T21:06:44.288Z,16.65
2022-12-01T21:10:07.203Z,17.63
2022-12-01T21:13:44.173Z,17.67
2022-12-01T21:17:22.180Z,27.08
2022-12-01T21:20:50.305Z,25.65
2022-12-01T21:24:19.880Z,17.80
2022-12-01T21:27:42.658Z,20.83
2022-12-01T21:31:14.168Z,17.55
2022-12-01T21:34:37.245Z,15.98
2022-12-01T21:38:04.487Z,21.85
2022-12-01T21:41:31.118Z,19.23
2022-12-01T21:44:55.317Z,16.83
2022-12-01T21:48:23.480Z,17.73
2022-12-01T21:51:49.809Z,17.55
2022-12-01T21:55:15.441Z,18.05
2022-12-01T21:58:38.113Z,14.98
2022-12-01T22:02:40.588Z,19.55
2022-12-01T22:06:30.948Z,17.55
2022-12-01T22:09:54.510Z,22.98
2022-12-01T22:13:17.517Z,20.17
2022-12-01T22:16:56.745Z,16.55
2022-12-01T22:20:23.033Z,17.30
2022-12-01T22:23:45.063Z,20.13
2022-12-01T22:27:27.196Z,13.82
2022-12-01T22:30:49.469Z,15.48
2022-12-01T22:34:14.610Z,18.92
2022-12-01T22:37:53.751Z,14.38
2022-12-01T22:41:21.954Z,16.67
2022-12-01T22:44:45.096Z,17.00
2022-12-01T22:48:33.362Z,11.98
2022-12-01T22:52:05.619Z,17.88
2022-12-01T22:55:29.845Z,18.33
2022-12-01T22:58:52.220Z,15.57
2022-12-01T23:02:35.012Z,18.23
2022-12-01T23:05:58.064Z,19.77
2022-12-01T23:09:26.394Z,20.17
2022-12-01T23:12:50.976Z,20.85
2022-12-01T23:16:16.028Z,16.30
2022-12-01T23:19:38.061Z,25.15
2022-12-01T23:23:04.370Z,17.13
2022-12-01T23:26:26.369Z,22.85
2022-12-01T23:29:48.534Z,21.23
2022-12-01T23:33:19.994Z,21.90
2022-12-01T23:36:42.498Z,16.83
2022-12-01T23:40:21.462Z,17.58
2022-12-01T23:43:45.308Z,23.30
2022-12-01T23:47:26.707Z,18.08
2022-12-01T23:50:52.849Z,21.77
2022-12-01T23:54:22.228Z,15.13
2022-12-01T23:57:44.371Z,20.52
